Time;durP1;ratioP1;P1;durP2;ratioP2;P2;SDS_P1;SDS_P2;PMS_P1;PMS_P2;Temp;Humidity;BMP_temperature;BMP_pressure;BME280_temperature;BME280_humidity;BME280_pressure;Samples;Min_cycle;Max_cycle;Signal;HPM_P1;HPM_P2
2023/04/18 00:00:56;;;;;;;12.18;7.43;;;;;;;-145.50;100.00;65435.88;6152033;23;20069;-76
2023/04/18 00:03:23;;;;;;;12.63;7.35;;;;;;;-145.50;100.00;65435.88;6137898;23;20113;-73
2023/04/18 00:05:50;;;;;;;14.05;7.50;;;;;;;-145.50;100.00;65435.88;6152938;23;20166;-76
2023/04/18 00:08:17;;;;;;;13.07;8.73;;;;;;;-145.50;100.00;65435.88;6154012;23;20044;-75
2023/04/18 00:10:43;;;;;;;14.90;8.40;;;;;;;-145.50;100.00;65435.88;6146588;23;20021;-74
2023/04/18 00:13:10;;;;;;;12.77;7.95;;;;;;;-145.50;100.00;65435.88;6154742;23;20357;-76
2023/04/18 00:15:37;;;;;;;13.13;7.82;;;;;;;-145.50;100.00;65435.88;6140932;23;20368;-76
2023/04/18 00:18:04;;;;;;;16.23;7.72;;;;;;;-145.50;100.00;65435.88;6149898;23;20017;-73
2023/04/18 00:20:31;;;;;;;13.98;7.90;;;;;;;-145.50;100.00;65435.88;6146922;23;20040;-74
2023/04/18 00:22:59;;;;;;;12.18;7.05;;;;;;;-145.50;100.00;65435.88;6157671;23;20543;-74
2023/04/18 00:25:26;;;;;;;17.08;7.85;;;;;;;-145.50;100.00;65435.88;6176169;23;20010;-74
2023/04/18 00:27:52;;;;;;;12.98;7.60;;;;;;;-145.50;100.00;65435.88;6167828;23;20065;-74
2023/04/18 00:30:18;;;;;;;10.73;7.65;;;;;;;-145.50;100.00;65435.88;6171866;23;20025;-75
2023/04/18 00:32:45;;;;;;;10.77;8.00;;;;;;;-145.50;100.00;65435.88;6142275;23;20025;-76
2023/04/18 00:35:12;;;;;;;12.75;8.43;;;;;;;-145.50;100.00;65435.88;6155942;23;20037;-75
2023/04/18 00:37:38;;;;;;;14.13;7.38;;;;;;;-145.50;100.00;65435.88;6152558;23;20373;-74
2023/04/18 00:40:05;;;;;;;10.93;7.60;;;;;;;-145.50;100.00;65435.88;6148220;23;20026;-76
2023/04/18 00:42:32;;;;;;;12.30;7.75;;;;;;;-145.50;100.00;65435.88;6149185;23;20445;-74
2023/04/18 00:44:58;;;;;;;11.73;8.05;;;;;;;-145.50;100.00;65435.88;6132221;23;20511;-73
2023/04/18 00:47:25;;;;;;;10.65;7.60;;;;;;;-145.50;100.00;65435.88;6148801;23;20560;-75
2023/04/18 00:49:53;;;;;;;11.55;8.15;;;;;;;-145.50;100.00;65435.88;6144493;23;20111;-75
2023/04/18 00:52:20;;;;;;;12.00;7.45;;;;;;;-145.50;100.00;65435.88;6152544;23;20021;-74
2023/04/18 00:54:47;;;;;;;12.27;8.48;;;;;;;-145.50;100.00;65435.88;6151555;23;20032;-74
2023/04/18 00:57:13;;;;;;;12.95;7.78;;;;;;;-145.50;100.00;65435.88;6143406;23;20112;-76
2023/04/18 00:59:41;;;;;;;12.30;7.80;;;;;;;-145.50;100.00;65435.88;6152202;23;20057;-76
2023/04/18 01:02:07;;;;;;;12.68;8.15;;;;;;;-145.50;100.00;65435.88;6143139;23;20029;-72
2023/04/18 01:04:34;;;;;;;15.90;8.10;;;;;;;-145.50;100.00;65435.88;6151515;23;20018;-71
2023/04/18 01:07:02;;;;;;;11.88;7.78;;;;;;;-145.50;100.00;65435.88;6137564;23;20784;-75
2023/04/18 01:09:29;;;;;;;10.52;7.85;;;;;;;-145.50;100.00;65435.88;6143979;23;20026;-75
2023/04/18 01:11:55;;;;;;;12.10;7.72;;;;;;;-145.50;100.00;65435.88;6150453;23;20118;-75
2023/04/18 01:14:22;;;;;;;13.45;8.50;;;;;;;-145.50;100.00;65435.88;6140262;23;20032;-75
2023/04/18 01:16:49;;;;;;;10.90;7.15;;;;;;;-145.50;100.00;65435.88;6150964;23;20375;-76
2023/04/18 01:19:16;;;;;;;12.23;7.88;;;;;;;-145.50;100.00;65435.88;6143152;23;20029;-75
2023/04/18 01:21:42;;;;;;;13.05;8.02;;;;;;;-145.50;100.00;65435.88;6148620;23;20408;-74
2023/04/18 01:24:11;;;;;;;10.68;7.75;;;;;;;-145.50;100.00;65435.88;6143428;23;20541;-74
2023/04/18 01:26:40;;;;;;;11.52;7.75;;;;;;;-145.50;100.00;65435.88;6151631;23;20053;-74
2023/04/18 01:29:06;;;;;;;11.07;7.18;;;;;;;-145.50;100.00;65435.88;6125978;23;20052;-75
2023/04/18 01:31:34;;;;;;;11.95;8.10;;;;;;;-145.50;100.00;65435.88;6117176;23;20421;-73
2023/04/18 01:34:02;;;;;;;12.23;7.95;;;;;;;-145.50;100.00;65435.88;6145832;23;20338;-73
2023/04/18 01:36:29;;;;;;;11.82;8.00;;;;;;;-145.50;100.00;65435.88;6138000;23;20022;-74
2023/04/18 01:38:56;;;;;;;12.27;7.47;;;;;;;-145.50;100.00;65435.88;6125267;23;20065;-77
2023/04/18 01:41:22;;;;;;;11.45;8.35;;;;;;;-145.50;100.00;65435.88;6143354;23;20534;-76
2023/04/18 01:43:49;;;;;;;10.15;7.05;;;;;;;-145.50;100.00;65435.88;6150266;23;20101;-75
2023/04/18 01:46:15;;;;;;;11.90;7.22;;;;;;;-145.50;100.00;65435.88;6152133;23;20092;-75
2023/04/18 01:48:42;;;;;;;10.82;8.15;;;;;;;-145.50;100.00;65435.88;6137259;23;20031;-76
2023/04/18 01:51:08;;;;;;;10.95;7.82;;;;;;;-145.50;100.00;65435.88;6120599;23;20034;-75
2023/04/18 01:53:35;;;;;;;11.02;7.20;;;;;;;-145.50;100.00;65435.88;6118063;23;20052;-74
2023/04/18 01:56:01;;;;;;;16.42;7.85;;;;;;;-145.50;100.00;65435.88;6154178;23;20025;-75
2023/04/18 01:58:28;;;;;;;11.73;8.13;;;;;;;-145.50;100.00;65435.88;6116856;23;20030;-74
2023/04/18 02:00:56;;;;;;;11.60;7.72;;;;;;;-145.50;100.00;65435.88;6152342;23;20041;-74
2023/04/18 02:03:23;;;;;;;12.80;8.25;;;;;;;-145.50;100.00;65435.88;6147122;23;20421;-74
2023/04/18 02:05:50;;;;;;;12.13;7.55;;;;;;;-145.50;100.00;65435.88;6139398;23;20025;-76
2023/04/18 02:08:17;;;;;;;11.65;7.20;;;;;;;-145.50;100.00;65435.88;6150376;23;20038;-75
2023/04/18 02:10:44;;;;;;;13.02;7.82;;;;;;;-145.50;100.00;65435.88;6117441;23;20029;-75
2023/04/18 02:13:10;;;;;;;12.23;8.20;;;;;;;-145.50;100.00;65435.88;6151308;23;20112;-75
2023/04/18 02:15:37;;;;;;;12.68;7.53;;;;;;;-145.50;100.00;65435.88;6144307;23;20025;-74
2023/04/18 02:18:03;;;;;;;13.52;7.63;;;;;;;-145.50;100.00;65435.88;6141986;23;20030;-74
2023/04/18 02:20:32;;;;;;;14.73;8.00;;;;;;;-145.50;100.00;65435.88;6149201;23;20104;-75
2023/04/18 02:22:59;;;;;;;13.13;7.47;;;;;;;-145.50;100.00;65435.88;6142514;23;20072;-75
2023/04/18 02:25:27;;;;;;;13.18;7.88;;;;;;;-145.50;100.00;65435.88;6126278;23;20032;-76
2023/04/18 02:27:55;;;;;;;13.10;7.73;;;;;;;-145.50;100.00;65435.88;6118200;23;20360;-75
2023/04/18 02:30:26;;;;;;;9.13;6.88;;;;;;;-145.50;100.00;65435.88;6146367;23;20702;-75
2023/04/18 02:32:58;;;;;;;9.40;7.28;;;;;;;-145.50;100.00;65435.88;6140215;23;20063;-74
2023/04/18 02:35:26;;;;;;;12.88;8.00;;;;;;;-145.50;100.00;65435.88;6150672;23;20033;-75
2023/04/18 02:37:52;;;;;;;8.85;7.03;;;;;;;-145.50;100.00;65435.88;6126635;23;20025;-74
2023/04/18 02:40:19;;;;;;;11.20;7.10;;;;;;;-145.50;100.00;65435.88;6144418;23;20033;-75
2023/04/18 02:42:45;;;;;;;11.63;8.07;;;;;;;-145.50;100.00;65435.88;6127140;23;20029;-68
2023/04/18 02:45:12;;;;;;;13.90;8.18;;;;;;;-145.50;100.00;65435.88;6131972;23;20141;-71
2023/04/18 02:47:39;;;;;;;13.20;7.30;;;;;;;-145.50;100.00;65435.88;6145237;23;20030;-70
2023/04/18 02:50:16;;;;;;;10.20;7.05;;;;;;;-145.50;100.00;65435.88;6141017;23;20099;-69
2023/04/18 02:52:43;;;;;;;18.25;7.90;;;;;;;-145.50;100.00;65435.88;6121040;23;20420;-68
2023/04/18 02:55:09;;;;;;;13.05;7.97;;;;;;;-145.50;100.00;65435.88;6123656;23;20453;-69
2023/04/18 02:57:36;;;;;;;11.00;7.05;;;;;;;-145.50;100.00;65435.88;6109356;23;20084;-69
2023/04/18 03:00:05;;;;;;;10.35;7.47;;;;;;;-145.50;100.00;65435.88;6144331;23;20025;-69
2023/04/18 03:02:31;;;;;;;10.80;7.18;;;;;;;-145.50;100.00;65435.88;6139986;23;20032;-68
2023/04/18 03:04:58;;;;;;;12.27;7.38;;;;;;;-145.50;100.00;65435.88;6148621;23;20029;-69
2023/04/18 03:07:24;;;;;;;12.55;7.20;;;;;;;-145.50;100.00;65435.88;6141603;23;20036;-68
2023/04/18 03:09:51;;;;;;;12.05;7.82;;;;;;;-145.50;100.00;65435.88;6122336;23;20056;-69
2023/04/18 03:12:17;;;;;;;11.38;7.40;;;;;;;-145.50;100.00;65435.88;6142796;23;20053;-70
2023/04/18 03:14:44;;;;;;;12.90;8.85;;;;;;;-145.50;100.00;65435.88;6136147;23;20388;-68
2023/04/18 03:17:10;;;;;;;11.45;7.68;;;;;;;-145.50;100.00;65435.88;6149171;23;20333;-67
2023/04/18 03:19:37;;;;;;;13.98;8.15;;;;;;;-145.50;100.00;65435.88;6141902;23;20025;-69
2023/04/18 03:22:03;;;;;;;14.00;8.10;;;;;;;-145.50;100.00;65435.88;6149548;23;20739;-68
2023/04/18 03:24:30;;;;;;;11.95;6.80;;;;;;;-145.50;100.00;65435.88;6141314;23;20080;-68
2023/04/18 03:26:58;;;;;;;15.93;8.50;;;;;;;-145.50;100.00;65435.88;6139660;23;20293;-70
2023/04/18 03:29:25;;;;;;;14.07;8.48;;;;;;;-145.50;100.00;65435.88;6120570;23;20337;-69
2023/04/18 03:31:51;;;;;;;11.30;8.00;;;;;;;-145.50;100.00;65435.88;6140296;23;20100;-69
2023/04/18 03:34:18;;;;;;;10.07;6.90;;;;;;;-145.50;100.00;65435.88;6149049;23;20041;-69
2023/04/18 03:36:44;;;;;;;9.93;7.15;;;;;;;-145.50;100.00;65435.88;6140736;23;20044;-69
2023/04/18 03:39:13;;;;;;;11.45;7.88;;;;;;;-145.50;100.00;65435.88;6143763;23;20099;-69
2023/04/18 03:41:43;;;;;;;13.30;7.95;;;;;;;-145.50;100.00;65435.88;6136195;23;20479;-68
2023/04/18 03:44:09;;;;;;;13.63;8.48;;;;;;;-145.50;100.00;65435.88;6148078;23;20060;-69
2023/04/18 03:46:37;;;;;;;12.75;7.93;;;;;;;-145.50;100.00;65435.88;6149100;23;20040;-71
2023/04/18 03:49:03;;;;;;;13.50;8.50;;;;;;;-145.50;100.00;65435.88;6115192;23;20036;-68
2023/04/18 03:51:42;;;;;;;11.95;7.80;;;;;;;-145.50;100.00;65435.88;6149327;23;20026;-69
2023/04/18 03:54:08;;;;;;;14.95;8.43;;;;;;;-145.50;100.00;65435.88;6136366;23;20021;-69
2023/04/18 03:56:35;;;;;;;13.30;8.35;;;;;;;-145.50;100.00;65435.88;6143384;23;20026;-70
2023/04/18 03:59:01;;;;;;;13.32;8.27;;;;;;;-145.50;100.00;65435.88;6140740;23;20025;-68
2023/04/18 04:01:28;;;;;;;12.60;8.35;;;;;;;-145.50;100.00;65435.88;6148142;23;20175;-69
2023/04/18 04:03:55;;;;;;;12.43;8.18;;;;;;;-145.50;100.00;65435.88;6148349;23;20021;-68
2023/04/18 04:06:21;;;;;;;10.23;7.68;;;;;;;-145.50;100.00;65435.88;6113605;23;20044;-69
2023/04/18 04:08:48;;;;;;;13.73;8.60;;;;;;;-145.50;100.00;65435.88;6140570;23;20045;-68
2023/04/18 04:11:14;;;;;;;14.10;9.00;;;;;;;-145.50;100.00;65435.88;6139221;23;20388;-68
2023/04/18 04:13:41;;;;;;;14.52;8.40;;;;;;;-145.50;100.00;65435.88;6148823;23;20026;-68
2023/04/18 04:16:07;;;;;;;11.43;7.68;;;;;;;-145.50;100.00;65435.88;6140078;23;20036;-69
2023/04/18 04:18:34;;;;;;;11.85;8.23;;;;;;;-145.50;100.00;65435.88;6148724;23;20472;-69
2023/04/18 04:21:02;;;;;;;13.00;7.78;;;;;;;-145.50;100.00;65435.88;6143606;23;20448;-68
2023/04/18 04:23:28;;;;;;;12.77;8.90;;;;;;;-145.50;100.00;65435.88;6135095;23;20068;-69
2023/04/18 04:25:55;;;;;;;11.80;7.97;;;;;;;-145.50;100.00;65435.88;6147956;23;20025;-68
2023/04/18 04:28:22;;;;;;;11.05;7.03;;;;;;;-145.50;100.00;65435.88;6114265;23;20037;-69
2023/04/18 04:30:49;;;;;;;13.95;8.85;;;;;;;-145.50;100.00;65435.88;6122901;23;20032;-68
2023/04/18 04:33:20;;;;;;;12.77;7.85;;;;;;;-145.50;100.00;65435.88;6115235;23;20499;-68
2023/04/18 04:35:46;;;;;;;12.02;8.00;;;;;;;-145.50;100.00;65435.88;6143269;23;20021;-68
2023/04/18 04:38:14;;;;;;;12.77;8.07;;;;;;;-145.50;100.00;65435.88;6142958;23;20065;-68
2023/04/18 04:40:41;;;;;;;11.18;7.55;;;;;;;-145.50;100.00;65435.88;6141581;23;20032;-68
2023/04/18 04:43:15;;;;;;;10.27;7.25;;;;;;;-145.50;100.00;65435.88;6150611;23;20021;-69
2023/04/18 04:45:43;;;;;;;10.77;7.68;;;;;;;-145.50;100.00;65435.88;6142210;23;20033;-67
2023/04/18 04:48:10;;;;;;;13.35;8.57;;;;;;;-145.50;100.00;65435.88;6150621;23;20052;-69
2023/04/18 04:50:39;;;;;;;12.27;7.95;;;;;;;-145.50;100.00;65435.88;6136030;23;20025;-68
2023/04/18 04:53:06;;;;;;;11.25;7.80;;;;;;;-145.50;100.00;65435.88;6144914;23;20100;-68
2023/04/18 04:55:33;;;;;;;12.98;8.07;;;;;;;-145.50;100.00;65435.88;6151352;23;20348;-68
2023/04/18 04:57:59;;;;;;;13.25;7.80;;;;;;;-145.50;100.00;65435.88;6141615;23;20483;-68
2023/04/18 05:00:26;;;;;;;11.50;7.93;;;;;;;-145.50;100.00;65435.88;6124079;23;20053;-68
2023/04/18 05:02:56;;;;;;;11.35;7.78;;;;;;;-145.50;100.00;65435.88;6139967;23;20515;-68
2023/04/18 05:05:22;;;;;;;14.82;8.23;;;;;;;-145.50;100.00;65435.88;6117414;23;20068;-70
2023/04/18 05:07:49;;;;;;;9.90;7.07;;;;;;;-145.50;100.00;65435.88;6141939;23;20547;-68
2023/04/18 05:10:15;;;;;;;11.75;7.80;;;;;;;-145.50;100.00;65435.88;6123385;23;20029;-68
2023/04/18 05:12:42;;;;;;;11.52;7.68;;;;;;;-145.50;100.00;65435.88;6150144;23;20176;-68
2023/04/18 05:15:09;;;;;;;13.88;7.85;;;;;;;-145.50;100.00;65435.88;6142021;23;20025;-68
2023/04/18 05:17:35;;;;;;;13.32;7.47;;;;;;;-145.50;100.00;65435.88;6144903;23;20314;-68
2023/04/18 05:20:03;;;;;;;17.80;7.85;;;;;;;-145.50;100.00;65435.88;6135998;23;20033;-67
2023/04/18 05:22:29;;;;;;;12.05;8.05;;;;;;;-145.50;100.00;65435.88;6150074;23;20348;-68
2023/04/18 05:24:56;;;;;;;13.48;7.88;;;;;;;-145.50;100.00;65435.88;6142764;23;20025;-71
2023/04/18 05:27:23;;;;;;;13.30;8.18;;;;;;;-145.50;100.00;65435.88;6123271;23;20107;-68
2023/04/18 05:29:50;;;;;;;13.40;8.40;;;;;;;-145.50;100.00;65435.88;6150070;23;20021;-68
2023/04/18 05:32:16;;;;;;;14.50;9.40;;;;;;;-145.50;100.00;65435.88;6135260;23;20026;-70
2023/04/18 05:34:43;;;;;;;12.10;8.07;;;;;;;-145.50;100.00;65435.88;6123465;23;20036;-68
2023/04/18 05:37:09;;;;;;;14.43;9.20;;;;;;;-145.50;100.00;65435.88;6114368;23;20037;-68
2023/04/18 05:39:36;;;;;;;11.70;7.65;;;;;;;-145.50;100.00;65435.88;6150044;23;20026;-68
2023/04/18 05:42:02;;;;;;;12.45;7.63;;;;;;;-145.50;100.00;65435.88;6145625;23;20029;-68
2023/04/18 05:44:29;;;;;;;14.30;8.68;;;;;;;-145.50;100.00;65435.88;6142421;23;20021;-68
2023/04/18 05:46:56;;;;;;;14.27;8.35;;;;;;;-145.50;100.00;65435.88;6144655;23;20067;-68
2023/04/18 05:49:22;;;;;;;14.18;8.30;;;;;;;-145.50;100.00;65435.88;6141059;23;20473;-67
2023/04/18 05:51:49;;;;;;;12.70;7.85;;;;;;;-145.50;100.00;65435.88;6149612;23;20029;-67
2023/04/18 05:54:16;;;;;;;12.73;8.45;;;;;;;-145.50;100.00;65435.88;6140995;23;20539;-67
2023/04/18 05:56:42;;;;;;;12.68;8.35;;;;;;;-145.50;100.00;65435.88;6150064;23;20484;-68
2023/04/18 05:59:09;;;;;;;11.73;7.78;;;;;;;-145.50;100.00;65435.88;6143399;23;20097;-67
2023/04/18 06:01:36;;;;;;;11.55;7.88;;;;;;;-145.50;100.00;65435.88;6136140;23;20103;-68
2023/04/18 06:04:02;;;;;;;11.13;7.60;;;;;;;-145.50;100.00;65435.88;6149933;23;20418;-68
2023/04/18 06:06:30;;;;;;;11.52;7.30;;;;;;;-145.50;100.00;65435.88;6140418;23;20080;-67
2023/04/18 06:08:56;;;;;;;12.70;8.05;;;;;;;-145.50;100.00;65435.88;6149871;23;20048;-68
2023/04/18 06:11:23;;;;;;;13.32;8.18;;;;;;;-145.50;100.00;65435.88;6138361;23;20029;-67
2023/04/18 06:13:49;;;;;;;11.23;7.55;;;;;;;-145.50;100.00;65435.88;6115737;23;20140;-68
2023/04/18 06:16:16;;;;;;;11.10;7.65;;;;;;;-145.50;100.00;65435.88;6122386;23;20029;-67
2023/04/18 06:18:42;;;;;;;11.07;7.35;;;;;;;-145.50;100.00;65435.88;6140662;23;20025;-69
2023/04/18 06:21:09;;;;;;;13.05;7.80;;;;;;;-145.50;100.00;65435.88;6149489;23;20492;-68
2023/04/18 06:23:37;;;;;;;10.32;7.50;;;;;;;-145.50;100.00;65435.88;6140643;23;20334;-68
2023/04/18 06:26:03;;;;;;;12.10;7.97;;;;;;;-145.50;100.00;65435.88;6144276;23;20025;-67
2023/04/18 06:28:30;;;;;;;12.68;7.60;;;;;;;-145.50;100.00;65435.88;6135588;23;20101;-67
2023/04/18 06:30:56;;;;;;;12.13;7.90;;;;;;;-145.50;100.00;65435.88;6147850;23;20080;-68
2023/04/18 06:33:23;;;;;;;12.75;9.35;;;;;;;-145.50;100.00;65435.88;6149806;23;20097;-68
2023/04/18 06:35:49;;;;;;;11.50;7.82;;;;;;;-145.50;100.00;65435.88;6140730;23;20080;-68
2023/04/18 06:38:16;;;;;;;14.13;7.80;;;;;;;-145.50;100.00;65435.88;6123488;23;20029;-69
2023/04/18 06:40:42;;;;;;;12.55;7.82;;;;;;;-145.50;100.00;65435.88;6109680;23;20032;-68
2023/04/18 06:43:09;;;;;;;14.40;8.30;;;;;;;-145.50;100.00;65435.88;6146696;23;20091;-68
2023/04/18 06:45:36;;;;;;;12.98;7.25;;;;;;;-145.50;100.00;65435.88;6141577;23;20100;-68
2023/04/18 06:48:02;;;;;;;11.00;7.03;;;;;;;-145.50;100.00;65435.88;6148886;23;20508;-69
2023/04/18 06:50:29;;;;;;;11.45;7.75;;;;;;;-145.50;100.00;65435.88;6148846;23;20029;-68
2023/04/18 06:52:56;;;;;;;13.60;7.28;;;;;;;-145.50;100.00;65435.88;6137215;23;20029;-67
2023/04/18 06:55:22;;;;;;;11.63;6.97;;;;;;;-145.50;100.00;65435.88;6142890;23;20028;-67
2023/04/18 06:57:49;;;;;;;12.85;6.68;;;;;;;-145.50;100.00;65435.88;6140700;23;20025;-67
2023/04/18 07:00:16;;;;;;;9.20;6.43;;;;;;;-145.50;100.00;65435.88;6148086;23;20104;-67
2023/04/18 07:02:42;;;;;;;11.48;6.78;;;;;;;-145.50;100.00;65435.88;6141549;23;20420;-67
2023/04/18 07:05:09;;;;;;;11.23;7.78;;;;;;;-145.50;100.00;65435.88;6148907;23;20025;-67
2023/04/18 07:07:36;;;;;;;9.52;6.28;;;;;;;-145.50;100.00;65435.88;6143536;23;20022;-68
2023/04/18 07:10:03;;;;;;;11.95;7.30;;;;;;;-145.50;100.00;65435.88;6135464;23;20022;-67
2023/04/18 07:12:29;;;;;;;11.32;6.82;;;;;;;-145.50;100.00;65435.88;6148315;23;20032;-67
2023/04/18 07:14:56;;;;;;;9.32;6.68;;;;;;;-145.50;100.00;65435.88;6140504;23;20030;-68
2023/04/18 07:17:22;;;;;;;10.63;6.45;;;;;;;-145.50;100.00;65435.88;6148397;23;20043;-67
2023/04/18 07:19:49;;;;;;;10.32;7.28;;;;;;;-145.50;100.00;65435.88;6148152;23;20112;-70
2023/04/18 07:22:15;;;;;;;10.52;6.82;;;;;;;-145.50;100.00;65435.88;6137035;23;20033;-67
2023/04/18 07:24:42;;;;;;;10.98;6.68;;;;;;;-145.50;100.00;65435.88;6144204;23;20032;-67
2023/04/18 07:27:09;;;;;;;8.85;6.78;;;;;;;-145.50;100.00;65435.88;6140715;23;20022;-67
2023/04/18 07:29:35;;;;;;;9.55;6.60;;;;;;;-145.50;100.00;65435.88;6149189;23;20082;-68
2023/04/18 07:32:02;;;;;;;9.45;5.60;;;;;;;-145.50;100.00;65435.88;6114542;23;20036;-67
2023/04/18 07:34:29;;;;;;;9.57;5.30;;;;;;;-145.50;100.00;65435.88;6144308;23;20128;-67
2023/04/18 07:36:56;;;;;;;9.45;5.78;;;;;;;-145.50;100.00;65435.88;6142349;23;20036;-69
2023/04/18 07:39:23;;;;;;;9.88;6.50;;;;;;;-145.50;100.00;65435.88;6137961;23;20060;-69
2023/04/18 07:41:50;;;;;;;8.85;5.90;;;;;;;-145.50;100.00;65435.88;6122784;23;20108;-68
2023/04/18 07:44:17;;;;;;;10.32;7.38;;;;;;;-145.50;100.00;65435.88;6140384;23;20375;-69
2023/04/18 07:46:43;;;;;;;9.73;6.13;;;;;;;-145.50;100.00;65435.88;6147953;23;20107;-69
2023/04/18 07:49:10;;;;;;;9.50;5.80;;;;;;;-145.50;100.00;65435.88;6135294;23;20477;-68
2023/04/18 07:51:37;;;;;;;10.30;6.10;;;;;;;-145.50;100.00;65435.88;6142431;23;20030;-69
2023/04/18 07:54:03;;;;;;;9.20;5.80;;;;;;;-145.50;100.00;65435.88;6148607;23;20029;-69
2023/04/18 07:56:30;;;;;;;11.70;5.97;;;;;;;-145.50;100.00;65435.88;6139699;23;20025;-67
2023/04/18 07:58:56;;;;;;;8.98;6.30;;;;;;;-145.50;100.00;65435.88;6122571;23;20029;-68
2023/04/18 08:01:23;;;;;;;7.82;5.38;;;;;;;-145.50;100.00;65435.88;6139137;23;20057;-68
2023/04/18 08:03:51;;;;;;;8.68;6.05;;;;;;;-145.50;100.00;65435.88;6141800;23;20403;-70
2023/04/18 08:06:19;;;;;;;;;;;;;;;-145.50;100.00;65435.88;6138303;23;20032;-66
2023/04/18 08:08:46;;;;;;;6.63;4.82;;;;;;;-145.50;100.00;65435.88;6148148;23;19916;-68
2023/04/18 08:11:13;;;;;;;9.02;5.25;;;;;;;-145.50;100.00;65435.88;6122150;23;20061;-68
2023/04/18 08:13:39;;;;;;;10.20;6.03;;;;;;;-145.50;100.00;65435.88;6140841;23;20021;-69
2023/04/18 08:16:07;;;;;;;7.88;5.75;;;;;;;-145.50;100.00;65435.88;6146917;23;20022;-68
2023/04/18 08:18:35;;;;;;;8.68;4.65;;;;;;;-145.50;100.00;65435.88;6111521;23;20051;-68
2023/04/18 08:21:04;;;;;;;8.50;5.43;;;;;;;-145.50;100.00;65435.88;6150502;23;20025;-68
2023/04/18 08:23:30;;;;;;;7.93;5.85;;;;;;;-145.50;100.00;65435.88;6143338;23;20057;-68
2023/04/18 08:25:57;;;;;;;7.40;5.32;;;;;;;-145.50;100.00;65435.88;6151728;23;20022;-68
2023/04/18 08:28:24;;;;;;;7.63;4.20;;;;;;;-145.50;100.00;65435.88;6125162;23;20025;-69
2023/04/18 08:30:51;;;;;;;8.68;5.85;;;;;;;-145.50;100.00;65435.88;6137171;23;20018;-70
2023/04/18 08:33:17;;;;;;;8.35;5.80;;;;;;;-145.50;100.00;65435.88;6145302;23;20061;-68
2023/04/18 08:35:44;;;;;;;8.55;6.18;;;;;;;-145.50;100.00;65435.88;6142374;23;20342;-68
2023/04/18 08:38:11;;;;;;;8.57;5.78;;;;;;;-145.50;100.00;65435.88;6125009;23;20051;-68
2023/04/18 08:40:38;;;;;;;9.02;6.05;;;;;;;-145.50;100.00;65435.88;6118245;23;20392;-70
2023/04/18 08:43:11;;;;;;;6.80;5.20;;;;;;;-145.50;100.00;65435.88;6124929;23;20029;-70
2023/04/18 08:45:38;;;;;;;9.23;5.72;;;;;;;-145.50;100.00;65435.88;6145959;23;20072;-68
2023/04/18 08:48:06;;;;;;;11.18;5.55;;;;;;;-145.50;100.00;65435.88;6137664;23;20028;-69
2023/04/18 08:50:33;;;;;;;8.88;5.38;;;;;;;-145.50;100.00;65435.88;6150389;23;20093;-68
2023/04/18 08:53:00;;;;;;;7.32;4.80;;;;;;;-145.50;100.00;65435.88;6142859;23;20049;-68
2023/04/18 08:55:26;;;;;;;8.20;5.72;;;;;;;-145.50;100.00;65435.88;6150312;23;20053;-68
2023/04/18 08:57:54;;;;;;;9.40;5.32;;;;;;;-145.50;100.00;65435.88;6139494;23;20494;-70
2023/04/18 09:00:22;;;;;;;7.37;5.27;;;;;;;-145.50;100.00;65435.88;6145168;23;20802;-67
2023/04/18 09:02:53;;;;;;;7.80;4.97;;;;;;;-145.50;100.00;65435.88;6149839;23;20239;-68
2023/04/18 09:05:21;;;;;;;6.45;4.43;;;;;;;-145.50;100.00;65435.88;6141490;23;20124;-68
2023/04/18 09:07:49;;;;;;;7.38;5.03;;;;;;;-145.50;100.00;65435.88;6150327;23;20025;-68
2023/04/18 09:10:29;;;;;;;8.40;4.85;;;;;;;-145.50;100.00;65435.88;6141429;23;20025;-68
2023/04/18 09:12:57;;;;;;;8.18;5.60;;;;;;;-145.50;100.00;65435.88;6143431;23;20035;-68
2023/04/18 09:15:26;;;;;;;8.07;5.05;;;;;;;-145.50;100.00;65435.88;6113247;23;20108;-68
2023/04/18 09:17:53;;;;;;;;;;;;;;;-145.50;100.00;65435.88;6124785;23;20479;-68
2023/04/18 09:20:36;;;;;;;8.65;4.97;;;;;;;-145.50;100.00;65435.88;6146153;23;19988;-70
2023/04/18 09:23:09;;;;;;;7.55;4.68;;;;;;;-145.50;100.00;65435.88;6150110;23;20035;-69
2023/04/18 09:25:45;;;;;;;6.55;4.68;;;;;;;-145.50;100.00;65435.88;6148462;23;20025;-70
2023/04/18 09:28:26;;;;;;;9.25;5.55;;;;;;;-145.50;100.00;65435.88;6115954;23;20033;-69
2023/04/18 09:31:08;;;;;;;7.88;5.85;;;;;;;-145.50;100.00;65435.88;6124069;23;20108;-69
2023/04/18 09:33:35;;;;;;;8.43;4.55;;;;;;;-145.50;100.00;65435.88;6115925;23;20029;-69
2023/04/18 09:36:19;;;;;;;9.57;4.97;;;;;;;-145.50;100.00;65435.88;6145531;23;20021;-69
2023/04/18 09:38:47;;;;;;;7.07;4.65;;;;;;;-145.50;100.00;65435.88;6136520;23;20363;-69
2023/04/18 09:41:15;;;;;;;6.87;5.17;;;;;;;-145.50;100.00;65435.88;6123607;23;20026;-69
2023/04/18 09:43:46;;;;;;;8.18;5.07;;;;;;;-145.50;100.00;65435.88;6141352;23;20302;-68
2023/04/18 09:46:13;;;;;;;7.38;4.50;;;;;;;-145.50;100.00;65435.88;6123465;23;20413;-70
2023/04/18 09:48:40;;;;;;;8.30;4.97;;;;;;;-145.50;100.00;65435.88;6149874;23;20062;-68
2023/04/18 09:51:09;;;;;;;6.90;4.53;;;;;;;-145.50;100.00;65435.88;6140303;23;20401;-68
2023/04/18 09:53:40;;;;;;;6.65;5.00;;;;;;;-145.50;100.00;65435.88;6148919;23;20101;-71
2023/04/18 09:56:28;;;;;;;5.68;4.43;;;;;;;-145.50;100.00;65435.88;6114661;23;20425;-68
2023/04/18 09:59:01;;;;;;;6.05;4.35;;;;;;;-145.50;100.00;65435.88;6149445;23;20029;-69
2023/04/18 10:01:28;;;;;;;6.45;4.32;;;;;;;-145.50;100.00;65435.88;6138829;23;20029;-69
2023/04/18 10:03:56;;;;;;;5.80;4.57;;;;;;;-145.50;100.00;65435.88;6149791;23;20064;-69
2023/04/18 10:06:26;;;;;;;9.00;5.72;;;;;;;-145.50;100.00;65435.88;6141831;23;20069;-69
2023/04/18 10:08:53;;;;;;;7.20;4.97;;;;;;;-145.50;100.00;65435.88;6150126;23;20025;-68
2023/04/18 10:11:20;;;;;;;7.18;4.88;;;;;;;-145.50;100.00;65435.88;6147934;23;20061;-67
2023/04/18 10:13:49;;;;;;;7.93;4.95;;;;;;;-145.50;100.00;65435.88;6141197;23;20528;-68
2023/04/18 10:16:15;;;;;;;;;;;;;;;-145.50;100.00;65435.88;6149846;23;20088;-69
2023/04/18 10:18:42;;;;;;;6.55;4.43;;;;;;;-145.50;100.00;65435.88;6140414;23;20401;-69
2023/04/18 10:21:09;;;;;;;6.65;4.50;;;;;;;-145.50;100.00;65435.88;6143960;23;20036;-69
2023/04/18 10:23:38;;;;;;;6.47;4.65;;;;;;;-145.50;100.00;65435.88;6139480;23;20134;-71
2023/04/18 10:26:06;;;;;;;7.28;4.90;;;;;;;-145.50;100.00;65435.88;6148295;23;20503;-69
2023/04/18 10:28:55;;;;;;;7.40;4.95;;;;;;;-145.50;100.00;65435.88;6150086;23;20022;-68
2023/04/18 10:31:23;;;;;;;7.70;5.53;;;;;;;-145.50;100.00;65435.88;6115676;23;20030;-68
2023/04/18 10:33:57;;;;;;;6.90;5.22;;;;;;;-145.50;100.00;65435.88;6149580;23;20488;-69
2023/04/18 10:36:27;;;;;;;6.35;4.50;;;;;;;-145.50;100.00;65435.88;6132885;23;20034;-71
2023/04/18 10:39:19;;;;;;;6.72;5.13;;;;;;;-145.50;100.00;65435.88;6146509;23;20029;-68
2023/04/18 10:41:50;;;;;;;7.63;5.07;;;;;;;-145.50;100.00;65435.88;6141480;23;20048;-68
2023/04/18 10:44:18;;;;;;;6.38;5.32;;;;;;;-145.50;100.00;65435.88;6149091;23;20029;-69
2023/04/18 10:46:51;;;;;;;8.73;5.78;;;;;;;-145.50;100.00;65435.88;6142764;23;20468;-68
2023/04/18 10:49:20;;;;;;;7.45;5.72;;;;;;;-145.50;100.00;65435.88;6118038;23;20033;-68
2023/04/18 10:51:51;;;;;;;7.70;4.85;;;;;;;-145.50;100.00;65435.88;6144625;23;20029;-69
2023/04/18 10:54:36;;;;;;;6.78;5.25;;;;;;;-145.50;100.00;65435.88;6142556;23;20036;-68
2023/04/18 10:57:04;;;;;;;9.07;6.00;;;;;;;-145.50;100.00;65435.88;6129105;23;20399;-69
2023/04/18 10:59:33;;;;;;;7.05;5.50;;;;;;;-145.50;100.00;65435.88;6142885;23;20032;-69
2023/04/18 11:02:14;;;;;;;9.68;5.50;;;;;;;-145.50;100.00;65435.88;6150445;23;20109;-68
2023/04/18 11:04:41;;;;;;;10.98;6.50;;;;;;;-145.50;100.00;65435.88;6134006;23;20029;-67
2023/04/18 11:07:08;;;;;;;8.57;5.75;;;;;;;-145.50;100.00;65435.88;6147566;23;20063;-69